Time;durP1;ratioP1;P1;durP2;ratioP2;P2;SDS_P1;SDS_P2;PMS_P1;PMS_P2;Temp;Humidity;BMP_temperature;BMP_pressure;BME280_temperature;BME280_humidity;BME280_pressure;Samples;Min_cycle;Max_cycle;Signal;HPM_P1;HPM_P2
2021/08/06 00:00:06;;;;;;;1.23;1.02;;;13.70;99.90;;;;;;4985164;28;20369;-66
2021/08/06 00:02:34;;;;;;;1.45;1.20;;;13.60;99.90;;;;;;4984859;28;20454;-68
2021/08/06 00:05:02;;;;;;;1.15;1.05;;;13.60;99.90;;;;;;4968583;28;20101;-68
2021/08/06 00:07:29;;;;;;;1.40;1.08;;;13.60;99.90;;;;;;4986473;28;20042;-65
2021/08/06 00:09:56;;;;;;;1.02;0.95;;;13.60;99.90;;;;;;4981907;28;20082;-66
2021/08/06 00:12:23;;;;;;;1.17;1.08;;;13.60;99.90;;;;;;4983598;28;20623;-68
2021/08/06 00:14:50;;;;;;;1.40;1.30;;;13.50;99.90;;;;;;4982084;28;20046;-65
2021/08/06 00:17:17;;;;;;;1.20;1.10;;;13.50;99.90;;;;;;4981401;28;20058;-66
2021/08/06 00:19:45;;;;;;;1.58;1.48;;;13.50;99.90;;;;;;4973801;28;20117;-67
2021/08/06 00:22:12;;;;;;;1.27;1.13;;;13.50;99.90;;;;;;4983453;28;20134;-66
2021/08/06 00:24:39;;;;;;;1.13;1.02;;;13.40;99.90;;;;;;4979314;28;20101;-64
2021/08/06 00:27:06;;;;;;;1.35;1.25;;;13.40;99.90;;;;;;4979569;28;20500;-64
2021/08/06 00:29:33;;;;;;;1.45;1.35;;;13.40;99.90;;;;;;4973804;28;20054;-65
2021/08/06 00:32:00;;;;;;;1.60;1.42;;;13.40;99.90;;;;;;4983543;28;20065;-67
2021/08/06 00:34:27;;;;;;;1.40;1.27;;;13.30;99.90;;;;;;4980807;28;20038;-66
2021/08/06 00:36:54;;;;;;;1.08;1.00;;;13.30;99.90;;;;;;4979086;28;20050;-64
2021/08/06 00:39:24;;;;;;;1.67;0.90;;;13.30;99.90;;;;;;4982386;28;20613;-67
2021/08/06 00:41:52;;;;;;;1.15;0.93;;;13.30;99.90;;;;;;4980944;28;20062;-67
2021/08/06 00:44:22;;;;;;;1.13;1.02;;;13.20;99.90;;;;;;4982403;28;20485;-64
2021/08/06 00:46:50;;;;;;;1.50;1.10;;;13.20;99.90;;;;;;4995893;28;20039;-68
2021/08/06 00:49:18;;;;;;;2.08;1.30;;;13.20;99.90;;;;;;4975509;28;20104;-65
2021/08/06 00:51:49;;;;;;;0.98;0.90;;;13.20;99.90;;;;;;4982862;28;20038;-67
2021/08/06 00:54:19;;;;;;;2.28;1.08;;;13.20;99.90;;;;;;4979722;28;20523;-66
2021/08/06 00:57:11;;;;;;;3.88;1.10;;;13.20;99.90;;;;;;4984084;28;20112;-69
2021/08/06 00:59:39;;;;;;;0.85;0.85;;;13.10;99.90;;;;;;4981356;28;20046;-65
2021/08/06 01:02:19;;;;;;;3.03;1.10;;;13.10;99.90;;;;;;4984026;28;20042;-66
2021/08/06 01:04:59;;;;;;;1.75;0.75;;;13.10;99.90;;;;;;4978468;28;20138;-67
2021/08/06 01:07:59;;;;;;;1.30;1.05;;;13.10;99.90;;;;;;4980055;28;20042;-64
2021/08/06 01:10:43;;;;;;;1.85;0.88;;;13.10;99.90;;;;;;4975590;28;20057;-64
2021/08/06 01:13:16;;;;;;;1.30;0.98;;;13.10;99.90;;;;;;4997151;28;20047;-65
2021/08/06 01:15:51;;;;;;;1.38;1.08;;;13.20;99.90;;;;;;4983718;28;20042;-64
2021/08/06 01:18:20;;;;;;;2.15;0.98;;;13.20;99.90;;;;;;4980549;28;20161;-68
2021/08/06 01:20:55;;;;;;;0.65;0.65;;;13.20;99.90;;;;;;4979668;28;20141;-66
2021/08/06 01:23:30;;;;;;;0.75;0.73;;;13.20;99.90;;;;;;4983137;28;20113;-66
2021/08/06 01:26:05;;;;;;;1.55;0.95;;;13.20;99.90;;;;;;4999285;28;20114;-65
2021/08/06 01:29:01;;;;;;;1.35;0.57;;;13.20;99.90;;;;;;4977155;28;20038;-67
2021/08/06 01:31:38;;;;;;;0.95;0.80;;;13.30;99.90;;;;;;4983568;28;20096;-64
2021/08/06 01:34:20;;;;;;;1.17;1.08;;;13.30;99.90;;;;;;4994781;28;20132;-65
2021/08/06 01:36:48;;;;;;;1.05;0.82;;;13.30;99.90;;;;;;4976549;28;20061;-65
2021/08/06 01:39:24;;;;;;;1.20;1.13;;;13.40;99.90;;;;;;4983933;28;20050;-68
2021/08/06 01:42:08;;;;;;;0.60;0.60;;;13.40;99.90;;;;;;4985845;28;20108;-66
2021/08/06 01:44:46;;;;;;;1.13;1.02;;;13.40;99.90;;;;;;4997106;28;20043;-66
2021/08/06 01:47:22;;;;;;;1.50;0.95;;;13.40;99.90;;;;;;4978199;28;20052;-65
2021/08/06 01:49:57;;;;;;;;;;;13.40;99.90;;;;;;4980742;28;20046;-67
2021/08/06 01:52:35;;;;;;;3.00;0.88;;;13.40;99.90;;;;;;4983425;28;19988;-64
2021/08/06 01:55:09;;;;;;;1.50;1.00;;;13.40;99.90;;;;;;4987135;28;20046;-66
2021/08/06 01:57:46;;;;;;;0.68;0.68;;;13.40;99.90;;;;;;4981921;28;20379;-65
2021/08/06 02:00:15;;;;;;;1.00;0.93;;;13.30;99.90;;;;;;4973424;28;20046;-65
2021/08/06 02:02:45;;;;;;;1.02;0.75;;;13.30;99.90;;;;;;4984988;28;20655;-63
2021/08/06 02:05:22;;;;;;;2.40;0.68;;;13.30;99.90;;;;;;4979273;28;20483;-67
2021/08/06 02:07:51;;;;;;;0.80;0.80;;;13.20;99.90;;;;;;4999843;28;20042;-64
2021/08/06 02:10:23;;;;;;;1.02;0.88;;;13.20;99.90;;;;;;4982177;28;20043;-64
2021/08/06 02:12:50;;;;;;;1.17;0.75;;;13.20;99.90;;;;;;4985832;28;20047;-63
2021/08/06 02:15:17;;;;;;;1.80;0.68;;;13.20;99.90;;;;;;4983673;28;20661;-64
2021/08/06 02:17:51;;;;;;;2.58;1.27;;;13.10;99.90;;;;;;4991094;28;20050;-66
2021/08/06 02:20:30;;;;;;;1.60;0.90;;;13.10;99.90;;;;;;4968587;28;20061;-67
2021/08/06 02:23:02;;;;;;;2.78;1.00;;;13.10;99.90;;;;;;4987649;28;20049;-64
2021/08/06 02:25:30;;;;;;;0.80;0.80;;;13.10;99.90;;;;;;4979206;28;20087;-65
2021/08/06 02:28:00;;;;;;;3.88;1.48;;;13.10;99.90;;;;;;4985137;28;20049;-68
2021/08/06 02:30:34;;;;;;;2.38;0.98;;;13.10;99.90;;;;;;4982760;28;20144;-65
2021/08/06 02:33:03;;;;;;;2.17;1.02;;;13.10;99.90;;;;;;4983966;28;20077;-67
2021/08/06 02:35:30;;;;;;;1.95;1.70;;;13.00;99.90;;;;;;4974166;28;20061;-67
2021/08/06 02:37:57;;;;;;;2.15;0.80;;;13.00;99.90;;;;;;4983301;28;20050;-65
2021/08/06 02:40:23;;;;;;;2.38;1.13;;;13.00;99.90;;;;;;4977424;28;20050;-69
2021/08/06 02:42:54;;;;;;;;;;;12.90;99.90;;;;;;4971791;28;20150;-66
2021/08/06 02:45:21;;;;;;;2.67;1.30;;;12.90;99.90;;;;;;4982067;28;19929;-65
2021/08/06 02:47:48;;;;;;;1.08;0.88;;;12.90;99.90;;;;;;4988284;28;20042;-64
2021/08/06 02:50:16;;;;;;;2.00;1.00;;;12.90;99.90;;;;;;4979549;28;20050;-64
2021/08/06 02:52:44;;;;;;;0.63;0.55;;;12.80;99.90;;;;;;4970027;28;20625;-63
2021/08/06 02:55:11;;;;;;;0.90;0.90;;;12.80;99.90;;;;;;4981348;28;20042;-68
2021/08/06 02:57:38;;;;;;;3.17;1.13;;;12.80;99.90;;;;;;4983332;28;20073;-66
2021/08/06 03:00:06;;;;;;;2.20;1.48;;;12.70;99.90;;;;;;4983572;28;20074;-65
2021/08/06 03:02:35;;;;;;;6.10;2.63;;;12.70;99.90;;;;;;4981122;28;20392;-64
2021/08/06 03:05:03;;;;;;;1.55;1.20;;;12.70;99.90;;;;;;4969035;28;20042;-65
2021/08/06 03:07:30;;;;;;;2.95;1.92;;;12.60;99.90;;;;;;4979850;28;20150;-71
2021/08/06 03:09:58;;;;;;;5.50;1.20;;;12.60;99.90;;;;;;4975854;28;20469;-67
2021/08/06 03:12:25;;;;;;;3.35;1.27;;;12.50;99.90;;;;;;4981753;28;20085;-64
2021/08/06 03:14:53;;;;;;;2.40;1.10;;;12.50;99.90;;;;;;4983210;28;20049;-64
2021/08/06 03:17:21;;;;;;;1.33;0.90;;;12.50;99.90;;;;;;4983716;28;20391;-67
2021/08/06 03:19:50;;;;;;;1.40;1.30;;;12.50;99.90;;;;;;4984496;28;20043;-66
2021/08/06 03:22:18;;;;;;;1.02;1.02;;;12.40;99.90;;;;;;4982747;28;20565;-65
2021/08/06 03:24:45;;;;;;;4.75;1.63;;;12.40;99.90;;;;;;4980027;28;20125;-64
2021/08/06 03:27:14;;;;;;;3.63;2.03;;;12.40;99.90;;;;;;4994870;28;20050;-64
2021/08/06 03:29:41;;;;;;;3.85;1.30;;;12.40;99.90;;;;;;4997375;28;20145;-69
2021/08/06 03:32:09;;;;;;;3.22;1.30;;;12.40;99.90;;;;;;4983239;28;20086;-64
2021/08/06 03:34:39;;;;;;;1.63;1.23;;;12.40;99.90;;;;;;4981280;28;20034;-65
2021/08/06 03:37:06;;;;;;;2.13;1.08;;;12.40;99.90;;;;;;4983273;28;20356;-67
2021/08/06 03:39:34;;;;;;;4.88;1.55;;;12.40;99.90;;;;;;4972386;28;20061;-66
2021/08/06 03:42:02;;;;;;;1.75;1.35;;;12.40;99.90;;;;;;4978526;28;20026;-64
2021/08/06 03:44:29;;;;;;;2.83;1.42;;;12.40;99.90;;;;;;4982213;28;20129;-65
2021/08/06 03:46:55;;;;;;;1.20;1.10;;;12.40;99.90;;;;;;4982409;28;20097;-66
2021/08/06 03:49:22;;;;;;;1.50;1.05;;;12.40;99.90;;;;;;4975419;28;20047;-68
2021/08/06 03:51:51;;;;;;;1.35;1.20;;;12.40;99.90;;;;;;4972297;28;20038;-69
2021/08/06 03:54:18;;;;;;;2.03;1.52;;;12.40;99.90;;;;;;4978384;28;20132;-65
2021/08/06 03:56:46;;;;;;;1.17;1.08;;;12.40;99.90;;;;;;4980822;28;20046;-64
2021/08/06 03:59:14;;;;;;;1.88;1.08;;;12.40;99.90;;;;;;4996093;28;20089;-67
2021/08/06 04:01:41;;;;;;;1.38;1.27;;;12.40;99.90;;;;;;4975255;28;20043;-65
2021/08/06 04:04:08;;;;;;;1.52;1.23;;;12.40;99.90;;;;;;4984051;28;20683;-68
2021/08/06 04:06:39;;;;;;;1.88;1.35;;;12.40;99.90;;;;;;4978958;28;20100;-65
2021/08/06 04:09:06;;;;;;;1.70;1.60;;;12.40;99.90;;;;;;4999790;28;20444;-66
2021/08/06 04:11:33;;;;;;;3.55;1.88;;;12.50;99.90;;;;;;4978729;28;20100;-67
2021/08/06 04:14:01;;;;;;;4.68;1.40;;;12.40;99.90;;;;;;4984371;28;20046;-64
2021/08/06 04:16:28;;;;;;;2.92;1.23;;;12.50;99.90;;;;;;4981072;28;20962;-65
2021/08/06 04:18:55;;;;;;;1.85;1.00;;;12.50;99.90;;;;;;4981044;28;20050;-67
2021/08/06 04:21:22;;;;;;;1.20;1.10;;;12.50;99.90;;;;;;4978426;28;20042;-67
2021/08/06 04:23:49;;;;;;;4.75;1.75;;;12.50;99.90;;;;;;4982168;28;20042;-67
2021/08/06 04:26:16;;;;;;;1.83;1.15;;;12.60;99.90;;;;;;4978812;28;20062;-65
2021/08/06 04:28:44;;;;;;;2.05;1.58;;;12.60;99.90;;;;;;4983224;28;20491;-65
2021/08/06 04:31:11;;;;;;;1.20;1.10;;;12.60;99.90;;;;;;4982097;28;20140;-66
2021/08/06 04:33:38;;;;;;;2.55;1.90;;;12.70;99.90;;;;;;4974590;28;20066;-65
2021/08/06 04:36:05;;;;;;;1.75;1.40;;;12.70;99.90;;;;;;4977105;28;20424;-63
2021/08/06 04:38:32;;;;;;;3.00;1.50;;;12.80;99.90;;;;;;4980740;28;20042;-65
2021/08/06 04:40:59;;;;;;;2.28;1.83;;;12.90;99.90;;;;;;4969987;28;20057;-64
2021/08/06 04:43:30;;;;;;;2.25;1.50;;;12.90;99.90;;;;;;4979934;28;20050;-65
2021/08/06 04:45:58;;;;;;;3.08;1.67;;;13.00;99.90;;;;;;4981579;28;20108;-64
2021/08/06 04:48:25;;;;;;;2.25;1.48;;;13.10;99.90;;;;;;4980794;28;20104;-65
2021/08/06 04:50:52;;;;;;;2.03;1.83;;;13.20;99.90;;;;;;4979956;28;20472;-65
2021/08/06 04:53:18;;;;;;;1.60;1.50;;;13.30;99.90;;;;;;4980769;28;20045;-68
2021/08/06 04:55:46;;;;;;;2.22;1.50;;;13.40;99.90;;;;;;4981949;28;20042;-65
2021/08/06 04:58:13;;;;;;;4.65;2.10;;;13.50;99.90;;;;;;4980862;28;20034;-68
2021/08/06 05:00:40;;;;;;;3.22;1.67;;;13.60;99.90;;;;;;4982359;28;20480;-66
2021/08/06 05:03:13;;;;;;;2.30;1.42;;;13.60;99.90;;;;;;4983216;28;20046;-63
2021/08/06 05:05:46;;;;;;;3.28;1.67;;;13.70;99.90;;;;;;4980290;28;20042;-65
2021/08/06 05:08:13;;;;;;;4.78;1.80;;;13.80;99.90;;;;;;4979548;28;20452;-67
2021/08/06 05:10:40;;;;;;;2.67;1.33;;;13.90;99.90;;;;;;4983540;28;20042;-69
2021/08/06 05:13:07;;;;;;;1.58;1.38;;;14.00;99.90;;;;;;4981633;28;20395;-64
2021/08/06 05:15:34;;;;;;;1.45;1.33;;;14.20;99.90;;;;;;4983608;28;20038;-63
2021/08/06 05:18:04;;;;;;;2.83;1.70;;;14.30;99.90;;;;;;5000486;28;20040;-66
2021/08/06 05:20:32;;;;;;;2.20;1.73;;;14.40;99.90;;;;;;4982381;28;20280;-64
2021/08/06 05:23:01;;;;;;;2.90;1.73;;;14.50;99.90;;;;;;4984459;28;20045;-66
2021/08/06 05:25:28;;;;;;;2.53;1.55;;;14.70;99.90;;;;;;4986200;28;20053;-65
2021/08/06 05:27:55;;;;;;;2.65;1.23;;;14.90;99.90;;;;;;4986253;28;20377;-66
2021/08/06 05:30:22;;;;;;;6.65;1.35;;;15.00;99.90;;;;;;4986011;28;20725;-64
2021/08/06 05:32:52;;;;;;;3.72;2.42;;;15.10;99.90;;;;;;4984533;28;20046;-64
2021/08/06 05:35:20;;;;;;;5.35;3.15;;;15.20;99.90;;;;;;4987979;28;20085;-65
2021/08/06 05:37:48;;;;;;;1.95;1.77;;;15.40;99.90;;;;;;4985335;28;20533;-65
2021/08/06 05:40:17;;;;;;;2.75;1.77;;;15.50;99.90;;;;;;4982342;28;20158;-67
2021/08/06 05:42:45;;;;;;;2.97;1.15;;;15.60;99.90;;;;;;4984329;28;20038;-67
2021/08/06 05:45:12;;;;;;;2.60;1.67;;;15.70;99.90;;;;;;4978340;28;20245;-65
2021/08/06 05:47:51;;;;;;;3.60;1.65;;;15.80;99.90;;;;;;4985398;28;20399;-65
2021/08/06 05:50:23;;;;;;;1.92;1.23;;;15.90;99.90;;;;;;4985406;28;20038;-65
2021/08/06 05:52:51;;;;;;;3.25;1.58;;;16.00;99.90;;;;;;4982737;28;20130;-66
2021/08/06 05:55:18;;;;;;;1.75;1.38;;;16.20;99.90;;;;;;4982868;28;20511;-66
2021/08/06 05:57:51;;;;;;;2.28;1.90;;;16.30;99.90;;;;;;4979243;28;20365;-64
2021/08/06 06:00:18;;;;;;;1.35;1.02;;;16.40;99.90;;;;;;4982402;28;20134;-68
2021/08/06 06:02:53;;;;;;;1.83;1.50;;;16.50;99.90;;;;;;4986887;28;20034;-64
2021/08/06 06:05:39;;;;;;;1.80;1.65;;;16.70;99.90;;;;;;5000520;28;20067;-65
2021/08/06 06:08:06;;;;;;;2.33;1.40;;;16.70;99.90;;;;;;4984327;28;20046;-66
2021/08/06 06:10:34;;;;;;;2.83;1.70;;;16.90;99.90;;;;;;4964716;28;20048;-68
2021/08/06 06:13:01;;;;;;;1.80;1.58;;;17.00;99.90;;;;;;4983964;28;20045;-68
2021/08/06 06:15:28;;;;;;;3.75;1.92;;;17.00;99.90;;;;;;4975589;28;20043;-66
2021/08/06 06:17:55;;;;;;;1.88;1.40;;;17.10;99.90;;;;;;4980565;28;20057;-72
2021/08/06 06:20:25;;;;;;;5.13;1.30;;;17.30;99.90;;;;;;4984767;28;20082;-70
2021/08/06 06:22:53;;;;;;;4.43;1.95;;;17.40;99.90;;;;;;4984587;28;20065;-66
2021/08/06 06:25:20;;;;;;;1.35;1.00;;;17.40;99.90;;;;;;4985460;28;20030;-66
2021/08/06 06:27:59;;;;;;;3.00;1.23;;;17.60;99.90;;;;;;4982464;28;20057;-64
2021/08/06 06:30:33;;;;;;;1.60;1.40;;;17.60;99.90;;;;;;4998256;28;21567;-70
2021/08/06 06:33:03;;;;;;;4.50;1.70;;;17.70;99.90;;;;;;4983135;28;20484;-65
2021/08/06 06:35:32;;;;;;;1.98;1.30;;;17.80;99.90;;;;;;4983607;28;20046;-65
2021/08/06 06:37:59;;;;;;;1.80;1.30;;;17.90;99.90;;;;;;4982191;28;20133;-65
2021/08/06 06:40:28;;;;;;;2.40;1.10;;;18.00;99.90;;;;;;4985487;28;20041;-66
2021/08/06 06:42:58;;;;;;;1.25;1.15;;;18.00;99.90;;;;;;4968667;28;20078;-67
2021/08/06 06:45:25;;;;;;;6.07;1.10;;;18.00;99.90;;;;;;4984460;28;20058;-65
2021/08/06 06:47:54;;;;;;;2.83;1.73;;;18.10;99.90;;;;;;4969440;28;20046;-64
2021/08/06 06:50:27;;;;;;;1.95;1.08;;;18.20;99.90;;;;;;4980602;28;20272;-65
2021/08/06 06:52:56;;;;;;;3.00;1.33;;;18.20;99.90;;;;;;4983301;28;20701;-66
2021/08/06 06:55:23;;;;;;;1.33;0.98;;;18.30;99.90;;;;;;4983617;28;20049;-69
2021/08/06 06:57:52;;;;;;;1.48;1.20;;;18.40;99.90;;;;;;4982443;28;20141;-69
2021/08/06 07:00:22;;;;;;;;;;;18.50;99.90;;;;;;4977933;28;21002;-66
2021/08/06 07:02:50;;;;;;;1.08;0.98;;;18.60;99.90;;;;;;4981384;28;19918;-66
2021/08/06 07:05:18;;;;;;;1.80;1.65;;;18.70;99.90;;;;;;4981693;28;20062;-65
2021/08/06 07:07:45;;;;;;;2.85;1.63;;;18.80;99.90;;;;;;4985583;28;20121;-65
2021/08/06 07:10:13;;;;;;;2.50;1.30;;;19.00;99.90;;;;;;4981697;28;20051;-65
2021/08/06 07:12:42;;;;;;;3.65;1.05;;;19.20;99.90;;;;;;4985400;28;20501;-67
2021/08/06 07:15:11;;;;;;;;;;;19.30;99.90;;;;;;4981157;28;20522;-68
2021/08/06 07:17:39;;;;;;;2.60;1.23;;;19.40;99.90;;;;;;4984903;28;19924;-65
2021/08/06 07:20:10;;;;;;;2.10;1.25;;;19.50;99.90;;;;;;4981926;28;20042;-70
2021/08/06 07:22:39;;;;;;;3.00;0.68;;;19.70;99.90;;;;;;4982551;28;20080;-70
2021/08/06 07:25:08;;;;;;;1.90;1.00;;;19.80;99.90;;;;;;4983047;28;20043;-64
2021/08/06 07:27:35;;;;;;;3.10;0.95;;;19.80;99.90;;;;;;4984837;28;20046;-64
2021/08/06 07:30:04;;;;;;;3.40;1.50;;;19.90;99.90;;;;;;4982385;28;20116;-70
2021/08/06 07:32:31;;;;;;;2.67;1.00;;;19.80;99.90;;;;;;4991306;28;20065;-71
2021/08/06 07:34:58;;;;;;;3.70;0.90;;;19.80;99.90;;;;;;4984656;28;20073;-66
2021/08/06 07:37:26;;;;;;;1.17;0.80;;;19.70;99.90;;;;;;4991916;28;20046;-66
2021/08/06 07:39:54;;;;;;;3.08;1.10;;;19.70;99.90;;;;;;4981269;28;20121;-68
2021/08/06 07:42:22;;;;;;;2.72;0.93;;;19.60;99.90;;;;;;4969866;28;20042;-66
2021/08/06 07:44:50;;;;;;;5.32;2.08;;;19.70;99.90;;;;;;4978995;28;20137;-67
2021/08/06 07:47:18;;;;;;;1.70;0.98;;;19.80;99.90;;;;;;4984962;28;20121;-69
2021/08/06 07:49:45;;;;;;;1.70;0.57;;;19.80;99.90;;;;;;4978519;28;20084;-65
2021/08/06 07:52:14;;;;;;;8.90;1.52;;;19.80;99.90;;;;;;4983892;28;20050;-66
2021/08/06 07:54:42;;;;;;;2.35;0.75;;;19.70;99.90;;;;;;4978792;28;20046;-65
2021/08/06 07:57:12;;;;;;;3.50;0.98;;;19.70;99.90;;;;;;4985503;28;20116;-67
2021/08/06 07:59:40;;;;;;;1.23;0.93;;;19.60;99.90;;;;;;4980316;28;20045;-67
2021/08/06 08:02:08;;;;;;;1.52;0.85;;;19.60;99.90;;;;;;4985232;28;20424;-65
2021/08/06 08:04:35;;;;;;;0.88;0.88;;;19.60;99.90;;;;;;4994576;28;20050;-65
2021/08/06 08:07:04;;;;;;;2.17;1.02;;;19.70;99.90;;;;;;5001228;28;20395;-68
2021/08/06 08:09:31;;;;;;;2.67;0.70;;;19.70;99.90;;;;;;4996969;28;20050;-65
2021/08/06 08:11:58;;;;;;;3.10;1.80;;;19.80;99.90;;;;;;4980909;28;20042;-66
2021/08/06 08:14:25;;;;;;;3.47;1.23;;;19.80;99.90;;;;;;4982457;28;20606;-64
2021/08/06 08:16:53;;;;;;;1.58;0.90;;;19.80;99.90;;;;;;4980949;28;20114;-66
2021/08/06 08:19:21;;;;;;;4.25;0.82;;;19.80;99.90;;;;;;4997857;28;20042;-65
2021/08/06 08:21:48;;;;;;;1.75;1.17;;;19.90;99.90;;;;;;4984045;28;20122;-68
2021/08/06 08:24:16;;;;;;;1.08;0.65;;;19.80;99.90;;;;;;4967000;28;20051;-68
2021/08/06 08:26:45;;;;;;;4.55;0.93;;;19.80;99.90;;;;;;4966770;28;20495;-67
2021/08/06 08:29:13;;;;;;;1.95;0.95;;;19.80;99.90;;;;;;4982627;28;20050;-67
2021/08/06 08:31:40;;;;;;;3.83;1.10;;;19.80;99.90;;;;;;4981763;28;20093;-67
2021/08/06 08:34:09;;;;;;;2.40;0.75;;;19.80;99.90;;;;;;4999730;28;20472;-69
2021/08/06 08:36:36;;;;;;;2.65;1.25;;;19.80;99.90;;;;;;4989875;28;20042;-66
2021/08/06 08:39:05;;;;;;;2.22;1.23;;;20.00;99.90;;;;;;4983629;28;20042;-66
2021/08/06 08:41:36;;;;;;;3.15;0.93;;;20.10;99.90;;;;;;4982643;28;20042;-65
2021/08/06 08:44:03;;;;;;;1.25;1.10;;;20.30;99.90;;;;;;4984360;28;20090;-70
2021/08/06 08:46:31;;;;;;;4.47;0.90;;;20.40;99.90;;;;;;4983008;28;20057;-68
2021/08/06 08:49:01;;;;;;;1.40;0.80;;;20.60;99.90;;;;;;4978763;28;20047;-65
2021/08/06 08:51:31;;;;;;;5.10;1.33;;;20.60;99.90;;;;;;4994768;28;20038;-68
2021/08/06 08:54:04;;;;;;;2.28;1.00;;;20.50;99.90;;;;;;4984187;28;20030;-65
2021/08/06 08:56:34;;;;;;;2.60;1.10;;;20.40;99.90;;;;;;4968212;28;20422;-65
2021/08/06 08:59:01;;;;;;;2.97;1.08;;;20.40;99.90;;;;;;4984343;28;20038;-68
2021/08/06 09:01:29;;;;;;;3.00;1.13;;;20.50;99.90;;;;;;4979698;28;20093;-67
2021/08/06 09:03:57;;;;;;;1.63;0.80;;;20.60;99.90;;;;;;4995125;28;20523;-67
2021/08/06 09:06:42;;;;;;;1.27;1.05;;;20.80;99.90;;;;;;4992796;28;20038;-65
2021/08/06 09:09:37;;;;;;;0.68;0.65;;;21.00;99.90;;;;;;4978631;28;20127;-65
2021/08/06 09:12:23;;;;;;;1.88;0.70;;;21.20;99.90;;;;;;4982381;28;20399;-70
2021/08/06 09:14:50;;;;;;;1.05;0.95;;;21.40;99.90;;;;;;4981694;28;20053;-67
2021/08/06 09:17:17;;;;;;;1.88;0.80;;;21.40;99.90;;;;;;4985407;28;20054;-64
2021/08/06 09:19:58;;;;;;;1.20;0.65;;;21.50;99.90;;;;;;4965569;28;20101;-67
2021/08/06 09:22:29;;;;;;;2.30;0.90;;;21.40;99.90;;;;;;4979077;28;20058;-67
2021/08/06 09:25:00;;;;;;;0.70;0.70;;;21.40;99.90;;;;;;4985116;28;20387;-65
2021/08/06 09:27:30;;;;;;;1.42;0.85;;;21.40;99.90;;;;;;4981594;28;20108;-66
2021/08/06 09:29:58;;;;;;;1.90;0.85;;;21.50;99.50;;;;;;4986085;28;20047;-66
2021/08/06 09:32:26;;;;;;;3.50;0.88;;;21.50;99.90;;;;;;4963331;28;20042;-70
2021/08/06 09:34:53;;;;;;;0.90;0.90;;;21.70;99.90;;;;;;4957370;28;20488;-65
2021/08/06 09:37:40;;;;;;;0.71;0.69;;;21.80;99.30;;;;;;2628255;28;10004030;-70
2021/08/06 09:40:13;;;;;;;1.58;0.93;;;21.80;99.10;;;;;;3265304;28;10001232;-64
2021/08/06 09:42:51;;;;;;;1.38;0.60;;;21.90;99.10;;;;;;4980062;28;20042;-70
2021/08/06 09:45:21;;;;;;;1.15;0.98;;;21.90;99.00;;;;;;4980871;28;20117;-66
2021/08/06 09:47:55;;;;;;;0.60;0.60;;;21.90;99.80;;;;;;4981117;28;20465;-65
2021/08/06 09:50:41;;;;;;;1.38;0.80;;;21.90;99.90;;;;;;4978518;28;20054;-66
2021/08/06 09:53:08;;;;;;;1.60;0.68;;;21.70;99.90;;;;;;4983368;28;20643;-65
2021/08/06 09:55:45;;;;;;;1.48;0.70;;;21.70;99.90;;;;;;4982614;28;20062;-65
2021/08/06 09:58:19;;;;;;;2.30;0.90;;;21.70;99.30;;;;;;4980493;28;20097;-66
2021/08/06 10:00:50;;;;;;;1.10;0.75;;;21.80;97.40;;;;;;4982353;28;20108;-67
2021/08/06 10:03:33;;;;;;;1.73;0.90;;;21.70;97.80;;;;;;4988122;28;20053;-66
2021/08/06 10:06:12;;;;;;;0.50;0.50;;;21.70;98.30;;;;;;4983882;28;20038;-67
2021/08/06 10:08:40;;;;;;;4.40;1.73;;;21.90;99.10;;;;;;4987010;28;20680;-68
2021/08/06 10:11:08;;;;;;;1.23;0.77;;;22.10;98.70;;;;;;4983485;28;20069;-66
2021/08/06 10:13:36;;;;;;;0.73;0.73;;;22.30;98.30;;;;;;4986732;28;20046;-64
2021/08/06 10:16:04;;;;;;;0.80;0.80;;;22.30;98.50;;;;;;4985023;28;20085;-67
2021/08/06 10:18:32;;;;;;;1.10;0.90;;;22.10;98.30;;;;;;4986483;28;20057;-67
2021/08/06 10:20:59;;;;;;;1.83;0.60;;;22.10;98.60;;;;;;4984179;28;20042;-65
2021/08/06 10:23:26;;;;;;;0.95;0.80;;;22.10;98.40;;;;;;4987585;28;20046;-67
2021/08/06 10:25:53;;;;;;;1.75;0.85;;;22.00;98.00;;;;;;4983810;28;20452;-66
2021/08/06 10:28:20;;;;;;;0.82;0.50;;;22.10;99.10;;;;;;4983529;28;20643;-65
2021/08/06 10:30:47;;;;;;;0.75;0.68;;;22.10;98.80;;;;;;4985654;28;20086;-66
2021/08/06 10:33:21;;;;;;;1.20;0.82;;;22.10;98.60;;;;;;4986422;28;20046;-65
2021/08/06 10:36:03;;;;;;;5.93;0.80;;;21.80;99.00;;;;;;4985381;28;20081;-66
2021/08/06 10:38:48;;;;;;;1.02;0.68;;;21.40;99.40;;;;;;4978761;28;20668;-66
2021/08/06 10:41:23;;;;;;;1.65;1.00;;;21.40;99.80;;;;;;4987803;28;20184;-72
2021/08/06 10:44:04;;;;;;;2.33;1.10;;;21.60;99.90;;;;;;4983291;28;20053;-67
2021/08/06 10:46:54;;;;;;;3.20;0.95;;;21.90;99.80;;;;;;4981302;28;20105;-71
2021/08/06 10:49:21;;;;;;;1.20;0.85;;;22.00;99.10;;;;;;4974264;28;20066;-67
2021/08/06 10:51:48;;;;;;;3.10;0.93;;;22.20;98.70;;;;;;4984378;28;20556;-66
2021/08/06 10:54:27;;;;;;;1.20;1.00;;;22.20;98.00;;;;;;4979539;28;20062;-65
2021/08/06 10:57:21;;;;;;;1.83;0.95;;;22.00;98.40;;;;;;4983674;28;20497;-66
2021/08/06 10:59:49;;;;;;;1.38;1.27;;;21.70;99.10;;;;;;4985669;28;20092;-67
2021/08/06 11:02:34;;;;;;;2.08;1.92;;;21.50;99.90;;;;;;4981899;28;20054;-65
2021/08/06 11:05:34;;;;;;;0.73;0.68;;;21.40;99.80;;;;;;4987503;28;20042;-65
2021/08/06 11:08:39;;;;;;;1.42;0.90;;;21.30;99.90;;;;;;4982113;28;20464;-66
2021/08/06 11:11:06;;;;;;;0.75;0.60;;;21.20;99.60;;;;;;4980849;28;20097;-67
2021/08/06 11:13:33;;;;;;;2.28;0.80;;;21.40;99.70;;;;;;4984215;28;20092;-65
2021/08/06 11:16:10;;;;;;;2.03;1.10;;;21.60;99.00;;;;;;4974222;28;20042;-65
2021/08/06 11:18:43;;;;;;;1.33;0.70;;;21.90;98.40;;;;;;4984237;28;20042;-65
2021/08/06 11:21:10;;;;;;;1.25;1.00;;;22.30;98.50;;;;;;4996432;28;20411;-70
2021/08/06 11:23:37;;;;;;;0.63;0.60;;;22.60;98.40;;;;;;4987420;28;20042;-67
2021/08/06 11:26:09;;;;;;;0.65;0.65;;;22.90;97.90;;;;;;4984633;28;20431;-66
2021/08/06 11:28:36;;;;;;;2.63;0.88;;;22.90;96.70;;;;;;4983283;28;20100;-65
2021/08/06 11:31:21;;;;;;;1.25;0.70;;;22.80;97.00;;;;;;4984619;28;20105;-67
2021/08/06 11:34:04;;;;;;;0.77;0.77;;;22.80;96.10;;;;;;4985419;28;20039;-67
2021/08/06 11:36:33;;;;;;;0.98;0.55;;;22.40;96.70;;;;;;4979584;28;20504;-66
2021/08/06 11:39:16;;;;;;;0.60;0.45;;;22.30;95.50;;;;;;4987307;28;20034;-65
2021/08/06 11:41:53;;;;;;;1.23;0.57;;;22.40;96.20;;;;;;4982014;28;20042;-65
2021/08/06 11:44:20;;;;;;;0.90;0.50;;;22.60;96.50;;;;;;4990497;28;20042;-65
2021/08/06 11:46:52;;;;;;;0.98;0.50;;;22.70;95.90;;;;;;4982908;28;20472;-68
2021/08/06 11:49:20;;;;;;;1.20;0.45;;;22.90;95.40;;;;;;4973461;28;20046;-66
2021/08/06 11:51:55;;;;;;;2.10;1.17;;;23.10;96.00;;;;;;4976979;28;20409;-68
2021/08/06 11:54:24;;;;;;;1.27;0.60;;;23.30;95.50;;;;;;4977630;28;20116;-66
2021/08/06 11:57:00;;;;;;;0.88;0.70;;;23.20;95.30;;;;;;4986462;28;20092;-67
2021/08/06 11:59:27;;;;;;;2.10;0.82;;;23.10;95.80;;;;;;4969235;28;20051;-68
2021/08/06 12:02:16;;;;;;;0.60;0.60;;;23.00;96.00;;;;;;4979519;28;20046;-64
2021/08/06 12:04:44;;;;;;;0.60;0.50;;;23.10;95.20;;;;;;4979404;28;20061;-65
2021/08/06 12:07:11;;;;;;;0.68;0.60;;;23.40;94.90;;;;;;4985026;28;20042;-70
2021/08/06 12:09:43;;;;;;;0.85;0.52;;;23.50;94.10;;;;;;4981067;28;20471;-67
2021/08/06 12:12:10;;;;;;;2.75;0.77;;;23.50;93.60;;;;;;4985116;28;20046;-69
2021/08/06 12:14:37;;;;;;;0.82;0.68;;;23.70;95.10;;;;;;4981563;28;20146;-67
2021/08/06 12:17:05;;;;;;;1.50;0.70;;;23.70;93.20;;;;;;4980190;28;20134;-65
2021/08/06 12:19:32;;;;;;;1.13;0.88;;;23.80;93.50;;;;;;4962525;28;20046;-72
2021/08/06 12:22:02;;;;;;;0.95;0.73;;;23.90;93.90;;;;;;4975161;28;20053;-68
2021/08/06 12:24:31;;;;;;;;;;;23.90;93.60;;;;;;4965536;28;20043;-67
2021/08/06 12:26:59;;;;;;;0.60;0.60;;;23.70;93.10;;;;;;4981097;28;19980;-66
2021/08/06 12:29:31;;;;;;;1.20;0.80;;;23.30;93.00;;;;;;4985181;28;20038;-65
2021/08/06 12:32:01;;;;;;;0.70;0.60;;;23.00;93.50;;;;;;4966377;28;20101;-66
2021/08/06 12:34:34;;;;;;;1.38;0.90;;;23.10;92.90;;;;;;4980816;28;20046;-66
2021/08/06 12:37:01;;;;;;;0.38;0.35;;;23.10;91.70;;;;;;4980702;28;20538;-70
2021/08/06 12:39:32;;;;;;;0.50;0.50;;;23.20;91.70;;;;;;4983150;28;20112;-69
2021/08/06 12:42:29;;;;;;;0.60;0.40;;;23.30;91.70;;;;;;4980186;28;20156;-65
2021/08/06 12:45:01;;;;;;;0.98;0.47;;;23.50;91.00;;;;;;4983576;28;20444;-68
2021/08/06 12:47:54;;;;;;;1.45;0.43;;;23.60;90.10;;;;;;4980180;28;20125;-69
2021/08/06 12:50:21;;;;;;;0.55;0.38;;;23.60;89.00;;;;;;4974780;28;20100;-69
2021/08/06 12:53:04;;;;;;;2.00;0.47;;;23.70;88.80;;;;;;4983606;28;20478;-65
2021/08/06 12:55:33;;;;;;;1.70;0.45;;;23.80;90.30;;;;;;4983056;28;20436;-65
2021/08/06 12:58:05;;;;;;;1.20;0.40;;;24.00;90.50;;;;;;4982626;28;20054;-67
2021/08/06 13:00:37;;;;;;;1.30;0.30;;;24.00;90.40;;;;;;4965726;28;21052;-71
2021/08/06 13:03:06;;;;;;;0.85;0.50;;;23.90;90.90;;;;;;4982990;28;20100;-66
2021/08/06 13:05:46;;;;;;;4.05;0.60;;;24.00;90.30;;;;;;4981433;28;20503;-67